Time;durP1;ratioP1;P1;durP2;ratioP2;P2;SDS_P1;SDS_P2;PMS_P1;PMS_P2;Temp;Humidity;BMP_temperature;BMP_pressure;BME280_temperature;BME280_humidity;BME280_pressure;Samples;Min_cycle;Max_cycle;Signal;HPM_P1;HPM_P2
2022/04/19 00:01:42;;;;;;;5.07;3.00;;;8.10;59.50;;;;;;4946218;28;20031;-85
2022/04/19 00:04:08;;;;;;;3.55;2.85;;;8.10;59.50;;;;;;4964611;28;20413;-86
2022/04/19 00:06:35;;;;;;;5.30;2.50;;;8.10;59.50;;;;;;4936233;29;20027;-84
2022/04/19 00:09:02;;;;;;;3.28;2.45;;;8.10;59.50;;;;;;4938729;28;20452;-84
2022/04/19 00:11:28;;;;;;;3.75;2.67;;;8.00;59.50;;;;;;4954467;29;20114;-86
2022/04/19 00:13:54;;;;;;;3.67;2.70;;;7.90;59.40;;;;;;4946991;28;20177;-86
2022/04/19 00:16:19;;;;;;;3.58;3.05;;;7.90;59.70;;;;;;4961907;28;20082;-85
2022/04/19 00:18:45;;;;;;;5.25;2.70;;;7.90;59.90;;;;;;4945189;28;20023;-86
2022/04/19 00:21:10;;;;;;;3.60;2.75;;;7.90;60.00;;;;;;4956898;28;20546;-86
2022/04/19 00:23:36;;;;;;;3.65;2.42;;;7.80;59.90;;;;;;4956275;28;20396;-86
2022/04/19 00:26:03;;;;;;;3.25;2.60;;;7.80;59.90;;;;;;4939847;29;20091;-86
2022/04/19 00:28:28;;;;;;;3.75;2.60;;;7.80;60.00;;;;;;4937186;29;20027;-87
2022/04/19 00:30:54;;;;;;;2.80;2.45;;;7.80;60.10;;;;;;4935091;28;20051;-87
2022/04/19 00:33:20;;;;;;;2.97;2.33;;;7.80;60.30;;;;;;4973858;28;20031;-84
2022/04/19 00:35:46;;;;;;;3.17;2.67;;;7.80;60.30;;;;;;4941070;29;20027;-85
2022/04/19 00:38:11;;;;;;;2.75;2.47;;;7.80;60.20;;;;;;4943862;28;20054;-85
2022/04/19 00:40:37;;;;;;;3.92;2.50;;;7.80;60.40;;;;;;4941896;28;20035;-85
2022/04/19 00:43:05;;;;;;;4.65;2.65;;;7.80;60.50;;;;;;4960745;28;20019;-84
2022/04/19 00:45:34;;;;;;;3.08;2.40;;;7.80;60.70;;;;;;4958093;28;20031;-84
2022/04/19 00:48:01;;;;;;;4.80;2.55;;;7.80;60.70;;;;;;4951104;28;20030;-85
2022/04/19 00:50:26;;;;;;;2.78;2.40;;;7.80;60.80;;;;;;4961766;28;20118;-85
2022/04/19 00:52:52;;;;;;;3.80;2.45;;;7.80;60.90;;;;;;4972893;28;20058;-85
2022/04/19 00:55:19;;;;;;;3.53;2.42;;;7.80;61.00;;;;;;4943078;29;20044;-85
2022/04/19 00:57:46;;;;;;;5.35;2.40;;;7.80;61.00;;;;;;4936393;29;20496;-86
2022/04/19 01:00:12;;;;;;;5.50;2.63;;;7.80;61.00;;;;;;4949666;28;20039;-86
2022/04/19 01:02:39;;;;;;;4.97;3.10;;;7.70;60.90;;;;;;4948928;28;20122;-86
2022/04/19 01:05:06;;;;;;;2.45;2.20;;;7.70;60.90;;;;;;4936801;28;20024;-85
2022/04/19 01:07:33;;;;;;;3.03;2.53;;;7.70;60.90;;;;;;4946217;28;20063;-86
2022/04/19 01:10:00;;;;;;;3.78;2.38;;;7.60;60.80;;;;;;4967279;28;20027;-86
2022/04/19 01:15:13;;;;;;;3.53;2.60;;;7.60;61.00;;;;;;4953168;28;20131;-86
2022/04/19 01:17:40;;;;;;;3.70;2.40;;;7.50;60.90;;;;;;4961707;28;20452;-85
2022/04/19 01:20:12;;;;;;;4.57;2.80;;;7.50;61.00;;;;;;4941064;28;20103;-86
2022/04/19 01:22:41;;;;;;;4.38;2.80;;;7.40;61.30;;;;;;4953805;29;20484;-86
2022/04/19 01:25:10;;;;;;;2.97;2.38;;;7.30;61.20;;;;;;4942092;28;20035;-84
2022/04/19 01:27:36;;;;;;;5.75;2.40;;;7.40;61.30;;;;;;4966792;28;20110;-86
2022/04/19 01:30:04;;;;;;;4.63;3.13;;;7.30;61.40;;;;;;4955089;28;20071;-85
2022/04/19 01:32:30;;;;;;;7.88;4.03;;;7.30;61.50;;;;;;4958759;28;20031;-86
2022/04/19 01:35:10;;;;;;;7.90;4.88;;;7.20;61.50;;;;;;4965004;28;20028;-86
2022/04/19 01:37:38;;;;;;;6.57;4.38;;;7.20;61.80;;;;;;4946080;29;20031;-86
2022/04/19 01:40:17;;;;;;;10.93;5.25;;;7.20;61.70;;;;;;4950764;28;20062;-85
2022/04/19 01:42:54;;;;;;;7.90;5.22;;;7.10;61.80;;;;;;4959842;28;20079;-86
2022/04/19 01:45:25;;;;;;;7.70;4.75;;;7.10;62.10;;;;;;4939209;28;20062;-85
2022/04/19 01:47:56;;;;;;;7.60;5.00;;;7.10;62.00;;;;;;4939035;29;20729;-86
2022/04/19 01:50:23;;;;;;;8.95;5.43;;;7.10;62.10;;;;;;4953246;28;20054;-85
2022/04/19 01:52:49;;;;;;;9.20;4.68;;;7.00;62.00;;;;;;4941958;29;20055;-85
2022/04/19 01:55:17;;;;;;;8.38;4.80;;;7.00;62.00;;;;;;4951086;28;20022;-86
2022/04/19 01:57:46;;;;;;;9.60;5.50;;;7.00;62.00;;;;;;4962780;28;20023;-86
2022/04/19 02:00:13;;;;;;;8.10;5.15;;;6.90;62.10;;;;;;4943469;28;20034;-87
2022/04/19 02:02:39;;;;;;;8.98;5.20;;;6.90;62.20;;;;;;4953014;29;20015;-88
2022/04/19 02:05:06;;;;;;;6.60;4.72;;;6.90;62.20;;;;;;4940401;28;20029;-87
2022/04/19 02:07:32;;;;;;;9.85;5.35;;;6.80;62.20;;;;;;4957777;28;20823;-87
2022/04/19 02:10:04;;;;;;;8.68;4.63;;;6.80;62.40;;;;;;4940056;28;20471;-87
2022/04/19 02:12:31;;;;;;;7.88;5.13;;;6.70;62.60;;;;;;4954491;28;20041;-88
2022/04/19 02:14:57;;;;;;;8.00;4.97;;;6.70;62.40;;;;;;4944063;28;20097;-87
2022/04/19 02:17:23;;;;;;;7.55;4.53;;;6.70;62.50;;;;;;4951709;29;20028;-87
2022/04/19 02:20:04;;;;;;;7.95;4.72;;;6.60;62.60;;;;;;4947145;29;20035;-87
2022/04/19 02:22:30;;;;;;;8.32;5.00;;;6.60;62.70;;;;;;4963494;28;20034;-87
2022/04/19 02:24:57;;;;;;;6.22;4.75;;;6.50;62.80;;;;;;4988107;28;20019;-88
2022/04/19 02:27:24;;;;;;;8.55;5.05;;;6.50;63.00;;;;;;4960486;28;20392;-87
2022/04/19 02:29:50;;;;;;;8.25;5.18;;;6.50;63.30;;;;;;4939437;29;20042;-89
2022/04/19 02:32:16;;;;;;;8.40;4.65;;;6.50;63.20;;;;;;4938085;28;20349;-88
2022/04/19 02:34:42;;;;;;;8.70;4.72;;;6.50;63.20;;;;;;4963915;28;20107;-88
2022/04/19 02:37:07;;;;;;;7.82;4.63;;;6.50;63.30;;;;;;4941720;28;20519;-87
2022/04/19 02:39:33;;;;;;;7.78;5.32;;;6.40;63.30;;;;;;4949208;28;20023;-88
2022/04/19 02:41:59;;;;;;;9.50;4.82;;;6.40;63.40;;;;;;4941808;28;20081;-86
2022/04/19 02:44:25;;;;;;;9.82;5.43;;;6.40;63.60;;;;;;4947005;28;20023;-88
2022/04/19 02:46:51;;;;;;;7.93;5.65;;;6.50;63.70;;;;;;4948727;29;20039;-88
2022/04/19 02:49:16;;;;;;;8.40;5.05;;;6.50;63.80;;;;;;4939988;29;20043;-87
2022/04/19 02:51:42;;;;;;;8.88;5.50;;;6.50;63.70;;;;;;4950207;29;20031;-88
2022/04/19 02:54:08;;;;;;;8.20;4.95;;;6.50;63.70;;;;;;4955775;28;20037;-87
2022/04/19 02:56:33;;;;;;;10.82;5.25;;;6.50;63.80;;;;;;4944825;29;20039;-87
2022/04/19 02:58:59;;;;;;;7.40;5.70;;;6.50;63.70;;;;;;4964390;28;20035;-87
2022/04/19 03:01:26;;;;;;;9.70;5.75;;;6.50;63.70;;;;;;4949681;29;20072;-87
2022/04/19 03:03:52;;;;;;;10.27;5.20;;;6.50;63.80;;;;;;4937842;28;20104;-87
2022/04/19 03:06:18;;;;;;;6.43;4.55;;;6.40;63.70;;;;;;4940022;29;20036;-87
2022/04/19 03:08:43;;;;;;;6.53;4.85;;;6.40;63.80;;;;;;4937301;29;20095;-87
2022/04/19 03:11:09;;;;;;;6.75;4.50;;;6.40;63.80;;;;;;4970769;28;20033;-87
2022/04/19 03:13:35;;;;;;;10.15;5.30;;;6.30;63.90;;;;;;4940584;29;20508;-88
2022/04/19 03:16:01;;;;;;;8.05;4.90;;;6.30;64.00;;;;;;4946039;28;20024;-87
2022/04/19 03:18:27;;;;;;;7.55;5.30;;;6.30;64.20;;;;;;4963317;28;20107;-86
2022/04/19 03:20:53;;;;;;;9.02;5.22;;;6.30;64.30;;;;;;4940570;28;20095;-87
2022/04/19 03:28:46;;;;;;;7.82;4.15;;;6.30;64.20;;;;;;4954208;28;20089;-87
2022/04/19 03:31:13;;;;;;;6.07;3.97;;;6.20;64.10;;;;;;4942059;28;20488;-88
2022/04/19 03:33:39;;;;;;;6.85;4.88;;;6.20;64.10;;;;;;4941895;29;20375;-88
2022/04/19 03:36:08;;;;;;;5.68;4.10;;;6.20;64.20;;;;;;4941802;28;20094;-87
2022/04/19 03:38:34;;;;;;;7.55;3.92;;;6.20;64.30;;;;;;4949111;29;20062;-87
2022/04/19 03:41:00;;;;;;;9.15;4.05;;;6.20;64.30;;;;;;4943798;28;20170;-88
2022/04/19 03:43:25;;;;;;;5.63;3.50;;;6.10;64.30;;;;;;4943268;28;20447;-86
2022/04/19 03:45:51;;;;;;;4.10;2.88;;;6.10;64.40;;;;;;4945675;28;20062;-87
2022/04/19 03:48:16;;;;;;;6.25;3.40;;;6.00;64.30;;;;;;4936504;29;20024;-85
2022/04/19 03:50:42;;;;;;;3.88;2.35;;;6.00;64.40;;;;;;4947729;29;20038;-87
2022/04/19 03:53:08;;;;;;;2.88;2.42;;;5.90;64.40;;;;;;4959590;28;20114;-87
2022/04/19 03:55:33;;;;;;;2.92;2.50;;;5.90;64.50;;;;;;4947369;29;20031;-86
2022/04/19 03:57:59;;;;;;;4.82;2.53;;;5.90;64.50;;;;;;4955834;28;20078;-88
2022/04/19 04:00:25;;;;;;;2.90;2.25;;;5.80;64.60;;;;;;4950759;28;20022;-86
2022/04/19 04:02:50;;;;;;;3.33;2.58;;;5.80;64.80;;;;;;4941326;29;20058;-87
2022/04/19 04:05:17;;;;;;;3.33;2.30;;;5.80;64.90;;;;;;4951825;28;20022;-87
2022/04/19 04:07:42;;;;;;;3.13;2.55;;;5.70;65.00;;;;;;4943060;29;20096;-87
2022/04/19 04:10:09;;;;;;;3.35;2.50;;;5.70;65.20;;;;;;4968934;28;20407;-86
2022/04/19 04:12:34;;;;;;;4.43;2.90;;;5.70;65.30;;;;;;4949314;28;20630;-87
2022/04/19 04:15:01;;;;;;;2.72;2.45;;;5.70;65.40;;;;;;4963935;28;20031;-87
2022/04/19 04:17:26;;;;;;;4.13;3.05;;;5.70;65.30;;;;;;4956099;28;20115;-86
2022/04/19 04:19:52;;;;;;;3.95;2.65;;;5.70;65.30;;;;;;4960225;28;20031;-86
2022/04/19 04:22:18;;;;;;;4.15;2.65;;;5.70;65.30;;;;;;4960786;28;20074;-86
2022/04/19 04:24:43;;;;;;;4.68;2.75;;;5.60;65.10;;;;;;4938759;29;20078;-87
2022/04/19 04:27:09;;;;;;;4.38;2.80;;;5.60;65.10;;;;;;4939000;29;20036;-87
2022/04/19 04:29:34;;;;;;;3.35;2.45;;;5.60;65.20;;;;;;4942885;28;20062;-87
2022/04/19 04:32:00;;;;;;;6.50;2.97;;;5.60;65.20;;;;;;4938566;28;20046;-86
2022/04/19 04:34:26;;;;;;;3.63;2.83;;;5.50;65.10;;;;;;4948208;29;20153;-86
2022/04/19 04:36:51;;;;;;;5.45;2.63;;;5.50;65.30;;;;;;4949570;28;20023;-87
2022/04/19 04:39:17;;;;;;;3.67;2.88;;;5.50;65.40;;;;;;4960592;28;20087;-87
2022/04/19 04:41:45;;;;;;;3.85;2.63;;;5.50;65.70;;;;;;4954634;28;20028;-88
2022/04/19 04:44:11;;;;;;;3.35;2.60;;;5.50;65.80;;;;;;4967106;28;20023;-87
2022/04/19 04:49:35;;;;;;;4.07;2.72;;;5.50;66.00;;;;;;4961938;28;20123;-86
2022/04/19 04:52:01;;;;;;;3.53;2.63;;;5.50;65.90;;;;;;4945284;28;20046;-87
2022/04/19 04:54:27;;;;;;;6.35;2.63;;;5.50;65.80;;;;;;4946580;29;20031;-88
2022/04/19 04:56:53;;;;;;;4.28;2.78;;;5.60;65.90;;;;;;4959517;28;20114;-86
2022/04/19 04:59:18;;;;;;;5.53;2.45;;;5.60;65.90;;;;;;4957435;29;20039;-87
2022/04/19 05:01:44;;;;;;;6.03;2.55;;;5.60;65.90;;;;;;4967518;28;20050;-86
2022/04/19 05:04:10;;;;;;;5.85;3.13;;;5.60;66.00;;;;;;4958571;28;20027;-87
2022/04/19 05:06:35;;;;;;;5.57;2.92;;;5.60;66.10;;;;;;4937442;29;20115;-86
2022/04/19 05:09:01;;;;;;;4.15;2.63;;;5.60;66.10;;;;;;4941920;28;20035;-88
2022/04/19 05:11:28;;;;;;;3.47;2.55;;;5.60;66.10;;;;;;4942891;28;20179;-86
2022/04/19 05:13:54;;;;;;;5.43;4.15;;;5.80;66.30;;;;;;4975952;28;20027;-88
2022/04/19 05:16:20;;;;;;;5.72;4.00;;;5.80;66.40;;;;;;4952875;29;20439;-87
2022/04/19 05:18:46;;;;;;;7.60;3.97;;;5.90;66.50;;;;;;4941401;28;20054;-86
2022/04/19 05:21:11;;;;;;;6.85;4.50;;;6.00;66.50;;;;;;4942441;28;20106;-87
2022/04/19 05:23:37;;;;;;;5.68;3.88;;;6.00;66.70;;;;;;4959674;28;20102;-87
2022/04/19 05:26:03;;;;;;;4.40;3.22;;;6.10;66.70;;;;;;4958513;28;20038;-88
2022/04/19 05:28:28;;;;;;;6.57;3.22;;;6.20;66.80;;;;;;4960854;29;20455;-86
2022/04/19 05:30:54;;;;;;;4.38;3.13;;;6.30;66.90;;;;;;4942292;29;20027;-87
2022/04/19 05:33:19;;;;;;;4.50;3.40;;;6.40;66.90;;;;;;4958674;29;20035;-87
2022/04/19 05:35:45;;;;;;;5.22;3.47;;;6.50;66.80;;;;;;4969448;29;20111;-86
2022/04/19 05:38:11;;;;;;;5.75;3.58;;;6.50;67.10;;;;;;4960922;29;20031;-87
2022/04/19 05:40:40;;;;;;;5.53;3.65;;;6.60;66.80;;;;;;4950130;29;20031;-87
2022/04/19 05:43:05;;;;;;;6.70;3.97;;;6.70;67.00;;;;;;4958412;29;20083;-87
2022/04/19 05:45:31;;;;;;;4.90;3.50;;;6.70;66.90;;;;;;4932526;29;20119;-86
2022/04/19 05:47:57;;;;;;;7.50;3.58;;;6.80;67.10;;;;;;4948278;28;20023;-88
2022/04/19 05:50:22;;;;;;;5.30;3.78;;;6.80;67.10;;;;;;4947629;29;20027;-87
2022/04/19 05:52:48;;;;;;;5.68;3.90;;;6.90;67.30;;;;;;4949357;29;20027;-87
2022/04/19 05:55:14;;;;;;;5.97;3.60;;;6.90;67.30;;;;;;4942575;28;20023;-87
2022/04/19 05:57:39;;;;;;;5.90;3.97;;;7.00;67.40;;;;;;4956788;29;20082;-88
2022/04/19 06:00:06;;;;;;;6.38;4.38;;;7.00;67.50;;;;;;4969324;28;20015;-89
2022/04/19 06:05:15;;;;;;;7.82;4.15;;;7.10;67.70;;;;;;4956564;28;20043;-87
2022/04/19 06:07:47;;;;;;;9.35;4.00;;;7.20;67.60;;;;;;4966625;28;20030;-87
2022/04/19 06:10:14;;;;;;;6.30;3.60;;;7.30;67.80;;;;;;4958780;28;20030;-86
2022/04/19 06:12:43;;;;;;;5.55;3.90;;;7.30;67.80;;;;;;4965968;28;20023;-87
2022/04/19 06:15:10;;;;;;;5.40;3.75;;;7.30;67.90;;;;;;4941268;28;20086;-87
2022/04/19 06:17:38;;;;;;;6.00;3.83;;;7.40;68.00;;;;;;4942484;29;20031;-87
2022/04/19 06:20:04;;;;;;;7.75;3.58;;;7.40;68.00;;;;;;4941835;28;20031;-87
2022/04/19 06:22:30;;;;;;;8.30;3.47;;;7.50;67.90;;;;;;4973070;28;20019;-87
2022/04/19 06:24:56;;;;;;;7.03;3.85;;;7.60;68.00;;;;;;4940293;28;20115;-87
2022/04/19 06:27:22;;;;;;;8.43;3.30;;;7.60;68.00;;;;;;4949410;29;20051;-87
2022/04/19 06:29:51;;;;;;;8.18;3.65;;;7.70;68.00;;;;;;4946643;28;20055;-88
2022/04/19 06:32:17;;;;;;;8.07;3.83;;;7.80;68.10;;;;;;4954013;28;20023;-87
2022/04/19 06:34:43;;;;;;;4.88;3.15;;;7.90;68.20;;;;;;4956227;29;20038;-87
2022/04/19 06:37:08;;;;;;;7.25;3.85;;;8.10;68.30;;;;;;4951457;28;20035;-87
2022/04/19 06:39:34;;;;;;;6.13;3.60;;;8.20;68.40;;;;;;4939892;29;20037;-87
2022/04/19 06:41:59;;;;;;;6.97;4.13;;;8.50;68.10;;;;;;4965278;28;20035;-87
2022/04/19 06:44:25;;;;;;;6.90;3.53;;;8.70;67.80;;;;;;4954472;29;20020;-87
2022/04/19 06:46:51;;;;;;;6.88;3.67;;;8.90;67.60;;;;;;4940432;29;20372;-87
2022/04/19 06:49:17;;;;;;;10.82;3.55;;;9.10;67.30;;;;;;4937593;29;20035;-88
2022/04/19 06:51:43;;;;;;;11.68;4.00;;;9.30;67.20;;;;;;4948076;28;20038;-87
2022/04/19 06:54:09;;;;;;;7.30;3.80;;;9.40;66.90;;;;;;4944787;28;20102;-87
2022/04/19 06:56:36;;;;;;;5.88;3.58;;;9.60;66.80;;;;;;4943374;29;20095;-87
2022/04/19 06:59:01;;;;;;;7.05;4.07;;;9.80;67.10;;;;;;4953657;28;20022;-87
2022/04/19 07:01:27;;;;;;;8.48;4.00;;;10.00;67.00;;;;;;4948506;29;20049;-86
2022/04/19 07:03:53;;;;;;;10.30;4.32;;;10.20;66.80;;;;;;4970812;28;20365;-87
2022/04/19 07:06:20;;;;;;;11.75;4.05;;;10.40;66.50;;;;;;4962543;28;20105;-87
2022/04/19 07:08:46;;;;;;;8.43;3.97;;;10.70;65.80;;;;;;4937844;29;20031;-87
2022/04/19 07:11:16;;;;;;;6.80;4.43;;;11.00;65.40;;;;;;4950063;28;20048;-87
2022/04/19 07:13:43;;;;;;;7.63;4.40;;;11.20;65.30;;;;;;4936878;29;20031;-87
2022/04/19 07:16:09;;;;;;;7.45;4.05;;;11.50;65.10;;;;;;4940167;28;20031;-88
2022/04/19 07:18:34;;;;;;;7.72;4.20;;;11.80;64.70;;;;;;4961806;28;20053;-88
2022/04/19 07:26:47;;;;;;;6.20;4.00;;;12.90;63.00;;;;;;4954649;28;20448;-89
2022/04/19 07:29:18;;;;;;;5.32;3.80;;;13.20;62.60;;;;;;4934831;28;20027;-88
2022/04/19 07:31:46;;;;;;;4.60;3.95;;;13.60;62.00;;;;;;4966280;28;20042;-89
2022/04/19 07:34:12;;;;;;;9.25;4.07;;;14.00;61.50;;;;;;4938368;28;20054;-90
2022/04/19 07:36:39;;;;;;;7.03;4.35;;;14.30;61.20;;;;;;4939776;29;20042;-88
2022/04/19 07:39:07;;;;;;;8.23;4.45;;;14.60;60.80;;;;;;4963382;28;20020;-88
2022/04/19 07:41:34;;;;;;;7.13;4.30;;;15.00;60.30;;;;;;4954522;28;20014;-88
2022/04/19 07:44:01;;;;;;;6.60;4.03;;;15.30;59.90;;;;;;4954929;29;20054;-85
2022/04/19 07:46:27;;;;;;;5.72;3.97;;;15.60;59.80;;;;;;4938639;28;20035;-90
2022/04/19 07:48:53;;;;;;;6.00;4.03;;;15.90;59.40;;;;;;4959366;28;20415;-90
2022/04/19 07:51:19;;;;;;;6.22;3.85;;;16.20;59.10;;;;;;4940089;29;20035;-87
2022/04/19 07:53:50;;;;;;;6.25;4.10;;;16.40;58.40;;;;;;4953243;28;20027;-86
2022/04/19 07:56:16;;;;;;;8.45;4.28;;;16.70;57.60;;;;;;4953851;28;20024;-88
2022/04/19 07:58:49;;;;;;;7.00;4.40;;;17.00;57.00;;;;;;4937234;29;20027;-87
2022/04/19 08:01:15;;;;;;;5.78;4.53;;;17.30;56.60;;;;;;4940551;28;20029;-88
2022/04/19 08:03:42;;;;;;;6.18;3.75;;;17.60;56.50;;;;;;4948523;29;20023;-87
2022/04/19 08:06:08;;;;;;;5.88;3.88;;;17.90;56.50;;;;;;4956872;28;20111;-87
2022/04/19 08:08:35;;;;;;;11.07;4.30;;;18.20;55.90;;;;;;4948856;28;20138;-88
2022/04/19 08:11:01;;;;;;;6.47;4.30;;;18.40;55.00;;;;;;4952087;28;20031;-86
2022/04/19 08:13:27;;;;;;;7.13;4.30;;;18.70;54.80;;;;;;4958978;28;20038;-88
2022/04/19 08:15:53;;;;;;;7.68;4.90;;;19.00;55.10;;;;;;4939603;28;20035;-86
2022/04/19 08:18:19;;;;;;;6.80;4.43;;;19.20;54.50;;;;;;4939206;29;20480;-86
2022/04/19 08:20:46;;;;;;;11.70;6.25;;;19.50;53.60;;;;;;4943626;28;20058;-87
2022/04/19 08:23:12;;;;;;;10.23;6.57;;;19.50;53.20;;;;;;4951834;28;20034;-87
2022/04/19 08:25:39;;;;;;;6.38;4.47;;;19.70;53.20;;;;;;4935576;29;20027;-87
2022/04/19 08:28:06;;;;;;;8.55;5.20;;;20.00;53.80;;;;;;4941481;28;20031;-87
2022/04/19 08:38:12;;;;;;;9.38;4.65;;;21.60;51.60;;;;;;4976146;28;20043;-88
2022/04/19 08:40:40;;;;;;;8.77;4.75;;;21.80;50.50;;;;;;4950942;28;20391;-87
2022/04/19 08:43:11;;;;;;;8.35;4.85;;;21.70;48.70;;;;;;4967090;28;20023;-87
2022/04/19 08:45:37;;;;;;;8.70;4.85;;;21.50;48.80;;;;;;4960866;28;20027;-87
2022/04/19 08:48:07;;;;;;;6.22;4.40;;;21.50;48.70;;;;;;4953557;28;20030;-87
2022/04/19 08:50:33;;;;;;;6.78;4.25;;;21.50;48.50;;;;;;4965609;28;20046;-87
2022/04/19 08:58:29;;;;;;;6.78;4.55;;;22.30;48.00;;;;;;4974827;28;20093;-87
2022/04/19 09:00:55;;;;;;;5.57;4.60;;;22.80;47.40;;;;;;4961883;28;20032;-88
2022/04/19 09:03:21;;;;;;;7.22;4.55;;;23.20;47.10;;;;;;4952885;28;20097;-89
2022/04/19 09:05:51;;;;;;;6.15;4.22;;;23.60;46.60;;;;;;4982756;28;20066;-89
2022/04/19 09:08:20;;;;;;;7.00;4.85;;;23.90;45.60;;;;;;4964615;28;20030;-89
2022/04/19 09:10:46;;;;;;;5.55;4.70;;;24.20;44.70;;;;;;4984886;28;20055;-89
2022/04/19 09:13:19;;;;;;;7.72;4.72;;;24.50;44.10;;;;;;4960772;28;20034;-87
2022/04/19 09:15:46;;;;;;;5.65;4.60;;;24.80;43.40;;;;;;4954203;28;20031;-88
2022/04/19 09:18:29;;;;;;;6.03;4.55;;;25.20;43.20;;;;;;4953472;28;20054;-87
2022/04/19 09:21:00;;;;;;;6.88;4.65;;;25.90;42.10;;;;;;4976018;28;20031;-88
2022/04/19 09:23:30;;;;;;;6.10;4.88;;;26.40;41.50;;;;;;4959018;28;20046;-88
2022/04/19 09:26:08;;;;;;;7.25;5.05;;;27.00;40.30;;;;;;4952189;28;20400;-89
2022/04/19 09:28:34;;;;;;;7.25;5.03;;;27.60;39.30;;;;;;4950585;29;20057;-87
2022/04/19 09:31:11;;;;;;;11.30;8.93;;;28.10;39.20;;;;;;4954986;28;20033;-88
2022/04/19 09:33:37;;;;;;;5.55;4.55;;;28.60;39.10;;;;;;4953368;28;20483;-88
2022/04/19 09:36:04;;;;;;;5.97;4.13;;;29.10;38.50;;;;;;4952388;28;20042;-88
2022/04/19 09:38:37;;;;;;;7.65;4.45;;;29.40;37.80;;;;;;4955799;28;20041;-88
2022/04/19 09:41:07;;;;;;;6.05;4.28;;;29.80;37.20;;;;;;4954059;28;20015;-90
2022/04/19 09:43:34;;;;;;;7.53;4.68;;;30.30;37.40;;;;;;4951200;28;20554;-90
2022/04/19 09:46:05;;;;;;;6.70;4.68;;;30.50;36.70;;;;;;4957161;28;20363;-89
2022/04/19 09:48:35;;;;;;;5.55;4.70;;;30.90;35.50;;;;;;4952347;28;20030;-88
2022/04/19 09:51:04;;;;;;;7.38;4.55;;;31.00;35.20;;;;;;4950798;28;20034;-88
2022/04/19 09:53:50;;;;;;;5.03;4.50;;;31.00;35.00;;;;;;4950036;28;20035;-88
2022/04/19 09:56:18;;;;;;;6.05;4.75;;;31.00;35.10;;;;;;4958063;28;20081;-88
2022/04/19 09:58:46;;;;;;;10.50;5.00;;;31.10;35.00;;;;;;4956308;28;20028;-89
2022/04/19 10:09:36;;;;;;;6.10;4.72;;;30.90;35.10;;;;;;4975854;28;20041;-90
2022/04/19 10:12:07;;;;;;;6.00;4.90;;;30.60;35.70;;;;;;4958714;28;20041;-89
2022/04/19 10:14:34;;;;;;;5.97;4.55;;;30.60;34.60;;;;;;4958665;28;20415;-89
2022/04/19 10:17:02;;;;;;;6.00;4.50;;;30.90;34.00;;;;;;4961784;28;20022;-89
2022/04/19 10:19:29;;;;;;;7.25;4.47;;;31.40;34.00;;;;;;4972980;28;20413;-91
2022/04/19 10:21:58;;;;;;;7.90;4.82;;;31.80;34.10;;;;;;4975960;28;20396;-89
2022/04/19 10:24:27;;;;;;;6.20;4.57;;;32.20;34.30;;;;;;4958554;28;20026;-90
2022/04/19 10:26:52;;;;;;;5.70;3.85;;;32.40;33.70;;;;;;4955435;29;20222;-87
2022/04/19 10:29:24;;;;;;;5.90;4.80;;;32.50;33.80;;;;;;4954113;28;20062;-87
2022/04/19 10:32:08;;;;;;;4.88;4.15;;;32.50;33.00;;;;;;4954948;28;20114;-86
2022/04/19 10:34:39;;;;;;;4.93;3.58;;;32.50;33.00;;;;;;4949634;28;20054;-86
2022/04/19 10:37:18;;;;;;;5.38;3.83;;;32.10;33.10;;;;;;4953172;28;20181;-84
2022/04/19 10:39:48;;;;;;;4.68;3.80;;;31.70;33.30;;;;;;4948532;28;20569;-88
2022/04/19 10:42:37;;;;;;;5.53;3.95;;;31.30;33.10;;;;;;4975052;28;20045;-89
2022/04/19 10:45:12;;;;;;;4.75;3.40;;;30.90;33.20;;;;;;4967181;28;20031;-89
2022/04/19 10:47:53;;;;;;;10.82;8.20;;;30.50;33.40;;;;;;4950584;28;20085;-89
2022/04/19 10:50:29;;;;;;;5.50;4.00;;;30.00;34.40;;;;;;4951366;28;20031;-88
2022/04/19 10:53:08;;;;;;;4.45;3.80;;;29.40;34.70;;;;;;4951718;28;20051;-85
2022/04/19 10:55:36;;;;;;;6.63;4.05;;;28.90;35.50;;;;;;4951084;28;20054;-89
2022/04/19 10:58:06;;;;;;;5.53;3.60;;;28.40;35.10;;;;;;4960126;28;20018;-88
2022/04/19 11:00:34;;;;;;;5.78;3.85;;;27.90;35.60;;;;;;4957640;28;20019;-88
2022/04/19 11:03:10;;;;;;;5.85;3.80;;;27.50;35.60;;;;;;4957178;28;20407;-88
2022/04/19 11:06:03;;;;;;;5.07;3.72;;;27.00;35.90;;;;;;4957836;28;20035;-89
2022/04/19 11:08:32;;;;;;;5.13;3.90;;;26.60;36.20;;;;;;4974041;28;20118;-88
2022/04/19 11:11:06;;;;;;;4.57;3.53;;;26.40;36.70;;;;;;4959772;28;20073;-88
2022/04/19 11:13:36;;;;;;;5.45;3.90;;;26.20;37.20;;;;;;4988872;28;20018;-89
2022/04/19 11:16:26;;;;;;;5.10;3.65;;;26.00;36.40;;;;;;4992814;28;20101;-89
2022/04/19 11:18:57;;;;;;;4.82;3.40;;;25.90;36.50;;;;;;4973010;28;20023;-89
2022/04/19 11:21:46;;;;;;;5.22;3.95;;;25.70;36.70;;;;;;4976480;28;20022;-89
2022/04/19 11:24:12;;;;;;;6.60;3.75;;;25.50;36.70;;;;;;4952428;28;20030;-89
2022/04/19 11:26:41;;;;;;;4.75;3.22;;;25.30;37.00;;;;;;4973499;28;20483;-90
2022/04/19 11:29:10;;;;;;;4.47;3.08;;;25.10;37.00;;;;;;4967543;28;20041;-90
2022/04/19 11:31:56;;;;;;;7.97;6.13;;;24.90;37.10;;;;;;4968994;28;20039;-87
2022/04/19 11:34:21;;;;;;;6.15;3.15;;;24.80;37.50;;;;;;4926320;28;20058;-89
2022/04/19 11:36:47;;;;;;;4.90;3.47;;;24.80;38.30;;;;;;4974250;28;20070;-88
2022/04/19 11:47:59;;;;;;;3.95;3.17;;;24.50;38.00;;;;;;4993622;28;20064;-87
2022/04/19 11:50:29;;;;;;;3.85;2.78;;;24.30;37.50;;;;;;5002276;28;20034;-89
2022/04/19 11:52:55;;;;;;;4.45;3.22;;;24.20;38.90;;;;;;4957640;28;20031;-86
2022/04/19 11:55:24;;;;;;;4.88;3.63;;;24.00;38.10;;;;;;4947732;28;20035;-86
2022/04/19 11:58:04;;;;;;;5.18;3.03;;;23.70;38.50;;;;;;4949785;28;20603;-87
2022/04/19 12:00:31;;;;;;;3.30;3.00;;;23.50;38.60;;;;;;4940038;28;20030;-87
2022/04/19 12:02:57;;;;;;;3.40;2.65;;;23.30;38.80;;;;;;4970168;28;20119;-86
2022/04/19 12:05:27;;;;;;;5.70;2.67;;;23.30;39.40;;;;;;4965502;28;20035;-84
2022/04/19 12:07:55;;;;;;;4.72;2.47;;;23.30;39.40;;;;;;4953879;28;20118;-86
2022/04/19 12:10:22;;;;;;;3.08;2.47;;;23.40;39.90;;;;;;4958779;28;20483;-84
2022/04/19 12:12:49;;;;;;;3.72;2.60;;;23.40;40.20;;;;;;4974238;28;20031;-84
2022/04/19 12:15:41;;;;;;;3.58;2.80;;;23.50;39.00;;;;;;4961092;28;20034;-85
2022/04/19 12:18:07;;;;;;;4.57;3.08;;;23.50;38.90;;;;;;4951883;28;20106;-85
2022/04/19 12:20:43;;;;;;;2.67;2.28;;;23.40;39.20;;;;;;4949388;28;20110;-84
2022/04/19 12:23:19;;;;;;;2.60;2.35;;;23.50;39.00;;;;;;4949640;28;20027;-85
2022/04/19 12:26:04;;;;;;;3.50;2.47;;;23.50;39.50;;;;;;4954022;28;20637;-84
2022/04/19 12:28:45;;;;;;;2.25;2.05;;;23.60;39.60;;;;;;4962032;28;20026;-85
2022/04/19 12:31:36;;;;;;;2.38;2.17;;;23.70;40.30;;;;;;4953675;28;20585;-84
2022/04/19 12:34:03;;;;;;;3.90;2.58;;;23.80;40.10;;;;;;4946104;28;20039;-84
2022/04/19 12:36:43;;;;;;;3.80;2.50;;;23.80;39.40;;;;;;4967749;28;20031;-86
2022/04/19 12:39:09;;;;;;;3.60;2.10;;;23.80;38.70;;;;;;4958622;28;20019;-84
2022/04/19 12:41:39;;;;;;;5.18;2.60;;;23.70;38.80;;;;;;4960488;28;20031;-84
2022/04/19 12:44:07;;;;;;;3.17;2.13;;;23.70;38.30;;;;;;4971728;28;20375;-84
2022/04/19 12:46:45;;;;;;;6.53;4.05;;;23.60;38.70;;;;;;4946004;28;20042;-86
2022/04/19 12:49:23;;;;;;;4.35;2.72;;;23.40;39.00;;;;;;4970856;28;20031;-85
2022/04/19 12:52:03;;;;;;;3.45;2.92;;;23.40;38.40;;;;;;4957213;28;20782;-85
2022/04/19 12:54:29;;;;;;;4.43;2.28;;;23.30;39.30;;;;;;4954063;28;20034;-85
2022/04/19 12:57:15;;;;;;;3.33;2.60;;;23.30;39.20;;;;;;4955288;28;20042;-85
2022/04/19 12:59:44;;;;;;;2.47;2.20;;;23.40;38.90;;;;;;4961687;28;20023;-84
2022/04/19 13:02:13;;;;;;;5.57;2.25;;;23.40;39.20;;;;;;4953647;28;20026;-84
2022/04/19 13:04:39;;;;;;;3.60;1.90;;;23.50;39.20;;;;;;4965815;28;20026;-84
2022/04/19 13:12:33;;;;;;;2.72;2.30;;;23.60;39.10;;;;;;4968273;28;20033;-80
2022/04/19 13:15:01;;;;;;;2.95;2.25;;;23.70;39.60;;;;;;4951479;28;20031;-83
2022/04/19 13:17:31;;;;;;;6.30;2.65;;;23.70;39.90;;;;;;4951273;28;20507;-83
2022/04/19 13:19:57;;;;;;;5.10;2.13;;;23.70;39.20;;;;;;4962125;28;20023;-83
2022/04/19 13:22:22;;;;;;;3.78;2.17;;;23.60;39.10;;;;;;4985680;28;20027;-84
2022/04/19 13:24:50;;;;;;;4.57;2.10;;;23.50;39.50;;;;;;4980669;28;20045;-88
2022/04/19 13:34:54;;;;;;;2.72;2.20;;;22.70;38.60;;;;;;4994245;28;20042;-83
2022/04/19 13:38:23;;;;;;;2.60;2.40;;;22.50;38.60;;;;;;4978487;28;20118;-85
2022/04/19 13:40:06;;;;;;;7.07;2.13;;;22.30;39.20;;;;;;4997012;28;20022;-83
2022/04/19 13:42:32;;;;;;;3.38;2.38;;;22.20;39.50;;;;;;4977194;28;20033;-85
2022/04/19 13:44:57;;;;;;;3.92;2.58;;;22.10;39.20;;;;;;4976710;28;20023;-83
2022/04/19 13:47:24;;;;;;;2.33;2.13;;;22.00;38.90;;;;;;4957599;28;20027;-84
2022/04/19 13:49:49;;;;;;;4.60;2.92;;;21.80;39.00;;;;;;4960108;28;20119;-85
2022/04/19 13:52:15;;;;;;;3.13;2.58;;;21.60;38.90;;;;;;4954279;28;20062;-84
2022/04/19 13:54:40;;;;;;;3.03;2.60;;;21.40;39.80;;;;;;4955050;28;20031;-84
2022/04/19 13:57:08;;;;;;;3.38;2.80;;;21.30;39.30;;;;;;4964733;28;20599;-84
2022/04/19 13:59:34;;;;;;;2.80;2.53;;;21.20;39.60;;;;;;4946502;28;20881;-83
2022/04/19 14:02:00;;;;;;;6.00;2.38;;;21.00;39.60;;;;;;4982034;28;20026;-84